createdAt,value
2022-12-04T00:00:03.769Z,5.10
2022-12-04T00:02:34.019Z,5.09
2022-12-04T00:05:02.360Z,5.07
2022-12-04T00:07:30.551Z,5.00
2022-12-04T00:09:58.721Z,5.02
2022-12-04T00:12:26.771Z,5.11
2022-12-04T00:17:48.645Z,5.10
2022-12-04T00:20:17.040Z,5.13
2022-12-04T00:22:45.212Z,5.09
2022-12-04T00:25:13.335Z,5.05
2022-12-04T00:27:41.332Z,5.11
2022-12-04T00:30:10.204Z,5.13
2022-12-04T00:32:38.318Z,5.03
2022-12-04T00:35:09.869Z,5.00
2022-12-04T00:37:37.931Z,5.03
2022-12-04T00:40:07.438Z,5.04
2022-12-04T00:42:35.467Z,4.95
2022-12-04T00:45:03.779Z,4.97
2022-12-04T00:47:31.815Z,5.08
2022-12-04T00:49:59.791Z,5.05
2022-12-04T00:52:29.265Z,5.02
2022-12-04T00:54:57.282Z,5.09
2022-12-04T00:57:25.341Z,5.05
2022-12-04T00:59:53.787Z,5.04
2022-12-04T01:02:22.319Z,5.06
2022-12-04T01:04:50.360Z,5.02
2022-12-04T01:07:18.467Z,5.09
2022-12-04T01:09:47.903Z,5.04
2022-12-04T01:12:20.577Z,5.05
2022-12-04T01:14:49.105Z,5.11
2022-12-04T01:17:17.155Z,5.05
2022-12-04T01:19:45.452Z,5.11
2022-12-04T01:22:13.514Z,5.10
2022-12-04T01:24:41.624Z,5.04
2022-12-04T01:27:11.041Z,5.05
2022-12-04T01:29:39.099Z,5.02
2022-12-04T01:32:07.530Z,5.05
2022-12-04T01:34:35.750Z,5.05
2022-12-04T01:37:04.088Z,5.03
2022-12-04T01:39:32.468Z,5.08
2022-12-04T01:42:00.561Z,5.12
2022-12-04T01:44:31.912Z,5.09
2022-12-04T01:47:01.284Z,5.08
2022-12-04T01:49:34.462Z,5.19
2022-12-04T01:52:07.640Z,5.13
2022-12-04T01:54:40.564Z,5.17
2022-12-04T01:57:13.578Z,5.13
2022-12-04T01:59:45.765Z,5.18
2022-12-04T02:02:17.415Z,5.14
2022-12-04T02:04:48.565Z,5.21
2022-12-04T02:07:16.560Z,5.15
2022-12-04T02:09:45.568Z,5.10
2022-12-04T02:12:23.307Z,5.09
2022-12-04T02:15:02.666Z,5.11
2022-12-04T02:17:45.428Z,5.15
2022-12-04T02:20:24.276Z,5.08
2022-12-04T02:23:15.107Z,5.11
2022-12-04T02:25:53.281Z,5.01
2022-12-04T02:28:27.038Z,5.04
2022-12-04T02:30:59.907Z,5.06
2022-12-04T02:33:32.418Z,5.06
2022-12-04T02:36:04.132Z,5.07
2022-12-04T02:38:38.267Z,5.08
2022-12-04T02:41:10.331Z,4.93
2022-12-04T02:43:45.339Z,5.08
2022-12-04T02:46:19.687Z,5.01
2022-12-04T02:48:51.832Z,5.02
2022-12-04T02:51:22.713Z,4.94
2022-12-04T02:53:56.132Z,4.94
2022-12-04T02:56:27.116Z,5.01
2022-12-04T02:58:59.622Z,4.96
2022-12-04T03:01:33.618Z,4.97
2022-12-04T03:04:07.070Z,4.90
2022-12-04T03:06:40.406Z,4.99
2022-12-04T03:09:13.771Z,4.96
2022-12-04T03:11:46.099Z,4.96
2022-12-04T03:14:19.691Z,4.96
2022-12-04T03:16:50.328Z,4.93
2022-12-04T03:19:22.467Z,4.87
2022-12-04T03:21:55.415Z,4.84
2022-12-04T03:24:27.481Z,4.85
2022-12-04T03:27:00.677Z,4.94
2022-12-04T03:29:35.314Z,4.85
2022-12-04T03:32:09.210Z,4.86
2022-12-04T03:34:46.260Z,4.85
2022-12-04T03:37:18.832Z,4.91
2022-12-04T03:39:55.471Z,4.85
2022-12-04T03:42:27.919Z,4.92
2022-12-04T03:45:04.089Z,4.85
2022-12-04T03:47:38.114Z,4.79
2022-12-04T03:50:16.925Z,4.82
2022-12-04T03:52:50.742Z,4.73
2022-12-04T03:55:26.190Z,4.77
2022-12-04T03:58:00.488Z,4.80
2022-12-04T04:00:31.552Z,4.76
2022-12-04T04:03:04.813Z,4.66
2022-12-04T04:05:35.473Z,4.72
2022-12-04T04:08:22.427Z,4.71
2022-12-04T04:10:53.617Z,4.68
2022-12-04T04:13:40.902Z,4.69
2022-12-04T04:16:33.317Z,4.65
2022-12-04T04:19:20.700Z,4.76
2022-12-04T04:22:09.167Z,4.70
2022-12-04T04:24:44.830Z,4.65
2022-12-04T04:27:13.263Z,4.69
2022-12-04T04:29:50.606Z,4.72
2022-12-04T04:32:32.064Z,4.74
2022-12-04T04:35:07.518Z,4.73
2022-12-04T04:37:41.896Z,4.79
2022-12-04T04:40:17.476Z,4.78
2022-12-04T04:42:51.611Z,4.75
2022-12-04T04:45:24.548Z,4.75
2022-12-04T04:47:57.658Z,4.72
2022-12-04T04:50:26.301Z,4.74
2022-12-04T04:53:00.002Z,4.71
2022-12-04T04:55:29.140Z,4.78
2022-12-04T04:58:07.642Z,4.76
2022-12-04T05:00:35.694Z,4.79
2022-12-04T05:07:10.920Z,4.74
2022-12-04T05:09:41.433Z,4.74
2022-12-04T05:12:10.007Z,4.76
2022-12-04T05:14:38.007Z,4.67
2022-12-04T05:17:10.898Z,4.69
2022-12-04T05:19:56.908Z,4.78
2022-12-04T05:22:28.596Z,4.80
2022-12-04T05:24:56.731Z,4.79
2022-12-04T05:27:26.348Z,4.72
2022-12-04T05:29:55.493Z,4.73
2022-12-04T05:32:25.142Z,4.73
2022-12-04T05:34:54.728Z,4.71
2022-12-04T05:37:23.197Z,4.77
2022-12-04T05:39:52.834Z,4.73
2022-12-04T05:42:22.678Z,4.78
2022-12-04T05:44:51.159Z,4.82
2022-12-04T05:47:19.181Z,4.64
2022-12-04T05:49:47.301Z,4.76
2022-12-04T05:52:15.806Z,4.75
2022-12-04T05:54:43.888Z,4.64
2022-12-04T05:57:13.356Z,4.66
2022-12-04T05:59:41.405Z,4.69
2022-12-04T06:02:09.505Z,4.74
2022-12-04T06:04:38.349Z,4.67
2022-12-04T06:07:06.947Z,4.74
2022-12-04T06:09:35.042Z,4.76
2022-12-04T06:12:03.251Z,4.82
2022-12-04T06:14:39.054Z,4.79
2022-12-04T06:17:08.054Z,4.76
2022-12-04T06:19:36.043Z,4.88
2022-12-04T06:22:04.100Z,4.84
2022-12-04T06:24:32.109Z,4.84
2022-12-04T06:29:50.393Z,4.76
2022-12-04T06:32:21.733Z,4.83
2022-12-04T06:34:52.572Z,4.88
2022-12-04T06:37:21.475Z,4.89
2022-12-04T06:39:49.638Z,4.84
2022-12-04T06:42:43.226Z,4.85
2022-12-04T06:45:13.204Z,4.87
2022-12-04T06:47:41.203Z,4.91
2022-12-04T06:50:10.097Z,4.88
2022-12-04T06:52:38.115Z,4.88
2022-12-04T06:55:07.045Z,4.85
2022-12-04T06:57:35.309Z,4.82
2022-12-04T07:00:03.300Z,4.78
2022-12-04T07:02:32.832Z,4.75
2022-12-04T07:05:00.951Z,4.79
2022-12-04T07:07:29.430Z,4.87
2022-12-04T07:09:57.685Z,4.78
2022-12-04T07:12:26.145Z,4.88
2022-12-04T07:14:54.273Z,4.87
2022-12-04T07:17:22.292Z,4.87
2022-12-04T07:19:51.889Z,4.86
2022-12-04T07:22:19.922Z,4.89
2022-12-04T07:25:16.225Z,4.88
2022-12-04T07:27:44.750Z,4.87
2022-12-04T07:30:15.849Z,4.88
2022-12-04T07:32:44.265Z,4.94
2022-12-04T07:35:13.837Z,4.87
2022-12-04T07:37:41.873Z,4.90
2022-12-04T07:40:10.809Z,4.93
2022-12-04T07:42:38.910Z,4.82
2022-12-04T07:45:07.814Z,4.78
2022-12-04T07:47:36.782Z,4.79
2022-12-04T07:50:05.762Z,4.76
2022-12-04T07:52:38.278Z,4.82
2022-12-04T07:55:07.863Z,4.77
2022-12-04T07:57:35.935Z,4.68
2022-12-04T08:00:04.211Z,4.73
2022-12-04T08:02:39.959Z,4.70
2022-12-04T08:05:08.211Z,4.71
2022-12-04T08:07:37.740Z,4.71
2022-12-04T08:10:07.126Z,4.76
2022-12-04T08:12:35.427Z,4.77
2022-12-04T08:15:03.527Z,4.77
2022-12-04T08:17:31.616Z,4.77
2022-12-04T08:19:59.856Z,4.78
2022-12-04T08:22:28.328Z,4.78
2022-12-04T08:24:57.822Z,4.78
2022-12-04T08:27:25.831Z,4.77
2022-12-04T08:29:54.051Z,4.83
2022-12-04T08:32:23.418Z,4.84
2022-12-04T08:34:55.746Z,4.88
2022-12-04T08:37:24.220Z,4.91
2022-12-04T08:39:52.913Z,4.86
2022-12-04T08:42:22.587Z,4.87
2022-12-04T08:44:50.667Z,4.84
2022-12-04T08:47:18.723Z,4.85
2022-12-04T08:49:46.820Z,4.87
2022-12-04T08:52:14.936Z,4.89
2022-12-04T08:55:33.098Z,4.86
2022-12-04T08:58:02.451Z,4.84
2022-12-04T09:00:31.592Z,4.88
2022-12-04T09:02:59.643Z,4.82
2022-12-04T09:05:27.722Z,4.89
2022-12-04T09:07:55.817Z,4.82
2022-12-04T09:10:23.982Z,4.84
2022-12-04T09:12:52.112Z,4.89
2022-12-04T09:15:21.620Z,4.95
2022-12-04T09:17:49.685Z,4.91
2022-12-04T09:20:17.884Z,4.92
2022-12-04T09:23:03.557Z,4.95
2022-12-04T09:25:32.765Z,4.97
2022-12-04T09:28:00.878Z,5.00
2022-12-04T09:30:30.357Z,5.01
2022-12-04T09:32:58.443Z,5.01
2022-12-04T09:35:26.466Z,5.00
2022-12-04T09:37:54.647Z,5.05
2022-12-04T09:40:33.495Z,5.01
2022-12-04T09:43:12.457Z,5.02
2022-12-04T09:45:47.109Z,5.04
2022-12-04T09:48:19.341Z,5.06
2022-12-04T09:50:49.968Z,5.09
2022-12-04T09:53:21.059Z,5.10
2022-12-04T09:55:53.104Z,5.06
2022-12-04T09:58:25.183Z,5.09
2022-12-04T10:00:56.503Z,5.09
2022-12-04T10:03:29.751Z,5.08
2022-12-04T10:06:04.375Z,5.06
2022-12-04T10:08:36.471Z,5.08
2022-12-04T10:11:13.688Z,5.08
2022-12-04T10:14:19.522Z,5.14
2022-12-04T10:17:04.205Z,5.07
2022-12-04T10:19:43.598Z,5.18
2022-12-04T10:22:17.820Z,5.11
2022-12-04T10:24:50.497Z,5.15
2022-12-04T10:27:23.059Z,5.18
2022-12-04T10:29:57.029Z,5.19
2022-12-04T10:32:30.509Z,5.18
2022-12-04T10:35:04.910Z,5.17
2022-12-04T10:37:35.626Z,5.23
2022-12-04T10:40:14.230Z,5.20
2022-12-04T10:42:48.184Z,5.16
2022-12-04T10:45:16.236Z,5.19
2022-12-04T10:47:50.867Z,5.28
2022-12-04T10:50:21.694Z,5.21
2022-12-04T10:52:50.218Z,5.26
2022-12-04T10:55:29.453Z,5.27
2022-12-04T10:57:57.642Z,5.32
2022-12-04T11:00:30.041Z,5.31
2022-12-04T11:03:02.769Z,5.32
2022-12-04T11:05:34.143Z,5.34
2022-12-04T11:08:06.002Z,5.30
2022-12-04T11:10:37.135Z,5.40
2022-12-04T11:13:06.788Z,5.31
2022-12-04T11:15:37.268Z,5.36
2022-12-04T11:18:11.169Z,5.40
2022-12-04T11:20:41.775Z,5.36
2022-12-04T11:23:17.674Z,5.40
2022-12-04T11:25:48.534Z,5.42
2022-12-04T11:28:40.636Z,5.34
2022-12-04T11:31:10.390Z,5.37
2022-12-04T11:34:36.431Z,5.45
2022-12-04T11:37:07.508Z,5.42
2022-12-04T11:39:37.586Z,5.42
2022-12-04T11:42:16.776Z,5.48
2022-12-04T11:44:52.735Z,5.49
2022-12-04T11:47:21.757Z,5.49
2022-12-04T11:50:01.727Z,5.50
2022-12-04T11:52:46.053Z,5.51
2022-12-04T11:55:22.295Z,5.58
2022-12-04T11:58:23.391Z,5.50
2022-12-04T12:00:59.253Z,5.49
2022-12-04T12:03:33.987Z,5.50
2022-12-04T12:06:31.174Z,5.55
2022-12-04T12:09:21.311Z,5.57
2022-12-04T12:11:56.093Z,5.60
2022-12-04T12:14:32.230Z,5.60
2022-12-04T12:17:30.070Z,5.65
2022-12-04T12:20:15.907Z,5.65
2022-12-04T12:22:58.524Z,5.74
2022-12-04T12:25:33.922Z,5.68
2022-12-04T12:28:13.837Z,5.69
2022-12-04T12:30:59.932Z,5.79
2022-12-04T12:33:34.639Z,5.75
2022-12-04T12:36:07.958Z,5.75
2022-12-04T12:38:40.520Z,5.80
2022-12-04T12:41:14.650Z,5.84
2022-12-04T12:43:48.468Z,5.77
2022-12-04T12:46:23.565Z,5.80
2022-12-04T12:49:00.142Z,5.85
2022-12-04T12:51:35.399Z,5.90
2022-12-04T12:54:15.639Z,5.81
2022-12-04T12:56:55.025Z,5.74
2022-12-04T12:59:27.659Z,5.80
2022-12-04T13:02:01.233Z,5.73
2022-12-04T13:04:36.485Z,5.77
2022-12-04T13:07:21.959Z,5.78
2022-12-04T13:09:55.462Z,5.76
2022-12-04T13:12:26.148Z,5.83
2022-12-04T13:14:54.228Z,5.72
2022-12-04T13:17:34.694Z,5.73
2022-12-04T13:20:10.228Z,5.68
2022-12-04T13:22:52.838Z,5.67
2022-12-04T13:25:34.320Z,5.74
2022-12-04T13:28:20.666Z,5.64
2022-12-04T13:30:54.554Z,5.64
2022-12-04T13:33:49.700Z,5.60
2022-12-04T13:36:35.074Z,5.70
2022-12-04T13:39:25.125Z,5.58
2022-12-04T13:41:59.790Z,5.64
2022-12-04T13:44:30.854Z,5.65
2022-12-04T13:47:00.155Z,5.68
2022-12-04T13:49:30.725Z,5.67
2022-12-04T13:52:25.063Z,5.69
2022-12-04T13:55:44.120Z,5.67
2022-12-04T13:58:28.438Z,5.73
2022-12-04T14:01:27.264Z,5.69
2022-12-04T14:03:57.578Z,5.72
2022-12-04T14:06:29.660Z,5.73
2022-12-04T14:09:01.626Z,5.66
2022-12-04T14:11:43.926Z,5.67
2022-12-04T14:14:25.599Z,5.65
2022-12-04T14:16:58.589Z,5.65
2022-12-04T14:19:34.766Z,5.60
2022-12-04T14:22:03.737Z,5.59
2022-12-04T14:24:36.113Z,5.62
2022-12-04T14:27:25.735Z,5.64
2022-12-04T14:29:57.984Z,5.66
2022-12-04T14:32:32.064Z,5.67
2022-12-04T14:35:00.956Z,5.62
2022-12-04T14:37:32.182Z,5.54
2022-12-04T14:40:01.746Z,5.60
2022-12-04T14:42:37.754Z,5.67
2022-12-04T14:45:18.596Z,5.64
2022-12-04T14:47:59.869Z,5.63
2022-12-04T14:50:31.597Z,5.63
2022-12-04T14:53:10.126Z,5.85
2022-12-04T14:55:48.913Z,5.69
2022-12-04T14:58:31.475Z,5.55
2022-12-04T15:01:01.967Z,5.59
2022-12-04T15:03:37.499Z,5.62
2022-12-04T15:06:08.040Z,5.62
2022-12-04T15:08:36.525Z,5.57
2022-12-04T15:11:25.614Z,5.64
2022-12-04T15:13:53.723Z,5.49
2022-12-04T15:17:12.107Z,5.58
2022-12-04T15:19:41.725Z,5.51
2022-12-04T15:22:59.758Z,5.55
2022-12-04T15:30:20.910Z,5.49
2022-12-04T15:32:51.538Z,5.50
2022-12-04T15:36:09.923Z,5.47
2022-12-04T15:38:41.190Z,5.38
2022-12-04T15:41:30.127Z,5.45
2022-12-04T15:43:58.574Z,5.33
2022-12-04T15:46:32.263Z,5.31
2022-12-04T15:49:08.579Z,5.38
2022-12-04T15:51:36.727Z,5.28
2022-12-04T15:54:06.498Z,5.31
2022-12-04T15:56:34.549Z,5.18
2022-12-04T15:59:03.464Z,5.26
2022-12-04T16:01:40.094Z,5.15
2022-12-04T16:04:20.780Z,5.23
2022-12-04T16:06:50.863Z,5.24
2022-12-04T16:09:23.245Z,5.25
2022-12-04T16:11:59.764Z,5.21
2022-12-04T16:14:27.990Z,5.18
2022-12-04T16:17:05.783Z,5.18
2022-12-04T16:19:36.655Z,5.21
2022-12-04T16:22:12.086Z,5.24
2022-12-04T16:24:41.753Z,5.24
2022-12-04T16:27:13.252Z,5.15
2022-12-04T16:29:41.474Z,5.14
2022-12-04T16:32:12.628Z,5.06
2022-12-04T16:34:41.199Z,5.01
2022-12-04T16:37:13.440Z,5.11
2022-12-04T16:39:43.086Z,5.07
2022-12-04T16:42:16.837Z,5.12
2022-12-04T16:44:45.590Z,5.02
2022-12-04T16:47:14.687Z,5.02
2022-12-04T16:49:43.743Z,5.07
2022-12-04T16:52:12.788Z,5.09
2022-12-04T16:54:42.666Z,5.01
2022-12-04T16:57:11.117Z,4.96
2022-12-04T16:59:39.626Z,5.01
2022-12-04T17:02:16.795Z,5.01
2022-12-04T17:04:45.053Z,4.98
2022-12-04T17:07:13.578Z,5.04
2022-12-04T17:09:43.135Z,5.09
2022-12-04T17:12:11.219Z,5.07
2022-12-04T17:14:40.105Z,4.98
2022-12-04T17:17:08.331Z,5.01
2022-12-04T17:19:36.419Z,5.00
2022-12-04T17:22:04.615Z,4.95
2022-12-04T17:24:32.901Z,5.00
2022-12-04T17:27:04.292Z,4.95
2022-12-04T17:29:32.391Z,4.83
2022-12-04T17:32:00.669Z,4.88
2022-12-04T17:34:28.844Z,4.87
2022-12-04T17:36:56.999Z,4.78
2022-12-04T17:39:25.089Z,4.81
2022-12-04T17:42:19.653Z,4.74
2022-12-04T17:44:47.828Z,4.77
2022-12-04T17:47:16.326Z,4.77
2022-12-04T17:49:44.693Z,4.75
2022-12-04T17:52:12.859Z,4.75
2022-12-04T17:54:41.097Z,4.80
2022-12-04T17:57:09.310Z,4.74
2022-12-04T17:59:38.955Z,4.77
2022-12-04T18:02:07.414Z,4.78
2022-12-04T18:04:35.487Z,4.78
2022-12-04T18:07:03.752Z,4.79
2022-12-04T18:09:32.660Z,4.81
2022-12-04T18:12:01.602Z,4.78
2022-12-04T18:14:31.777Z,4.76
2022-12-04T18:17:02.541Z,4.83
2022-12-04T18:19:31.330Z,4.82
2022-12-04T18:22:00.110Z,4.86
2022-12-04T18:29:03.444Z,4.89
2022-12-04T18:31:32.144Z,4.83
2022-12-04T18:34:01.909Z,4.81
2022-12-04T18:36:31.743Z,4.80
2022-12-04T18:39:02.278Z,4.78
2022-12-04T18:41:31.482Z,4.79
2022-12-04T18:43:59.837Z,4.76
2022-12-04T18:46:27.995Z,4.63
2022-12-04T18:48:59.073Z,4.69
2022-12-04T18:51:29.655Z,4.78
2022-12-04T18:54:00.018Z,4.74
2022-12-04T18:56:29.067Z,4.79
2022-12-04T18:59:03.853Z,4.75
2022-12-04T19:01:32.262Z,4.74
2022-12-04T19:04:02.331Z,4.77
2022-12-04T19:06:34.196Z,4.73
2022-12-04T19:09:05.513Z,4.77
2022-12-04T19:11:34.222Z,4.74
2022-12-04T19:14:08.297Z,4.65
2022-12-04T19:16:41.163Z,4.74
2022-12-04T19:19:09.424Z,4.77
2022-12-04T19:21:39.131Z,4.81
2022-12-04T19:24:08.400Z,4.67
2022-12-04T19:26:36.645Z,4.68
2022-12-04T19:29:05.782Z,4.78
2022-12-04T19:31:36.725Z,4.75
2022-12-04T19:34:05.268Z,4.77
2022-12-04T19:36:34.972Z,4.76
2022-12-04T19:39:07.299Z,4.73
2022-12-04T19:41:37.325Z,4.78
2022-12-04T19:44:39.702Z,4.77
2022-12-04T19:46:54.094Z,4.70
2022-12-04T19:49:22.443Z,4.75
2022-12-04T19:51:50.765Z,4.71
2022-12-04T19:54:21.070Z,4.69
2022-12-04T19:56:52.553Z,4.64
2022-12-04T19:59:21.967Z,4.66
2022-12-04T20:01:50.351Z,4.59
2022-12-04T20:04:18.658Z,4.59
2022-12-04T20:06:47.826Z,4.66
2022-12-04T20:09:19.270Z,4.65
2022-12-04T20:11:49.592Z,4.61
2022-12-04T20:14:18.859Z,4.74
2022-12-04T20:16:47.742Z,4.70
2022-12-04T20:19:18.239Z,4.65
2022-12-04T20:21:47.197Z,4.60
2022-12-04T20:24:17.811Z,4.49
2022-12-04T20:26:49.461Z,4.59
2022-12-04T20:29:20.041Z,4.61
2022-12-04T20:31:48.581Z,4.57
2022-12-04T20:34:19.227Z,4.50
2022-12-04T20:36:49.123Z,4.56
2022-12-04T20:39:19.041Z,4.46
2022-12-04T20:41:47.718Z,4.52
2022-12-04T20:44:19.404Z,4.51
2022-12-04T20:46:48.404Z,4.48
2022-12-04T20:49:21.781Z,4.48
2022-12-04T20:51:52.611Z,4.49
2022-12-04T20:54:23.301Z,4.43
2022-12-04T20:56:53.621Z,4.48
2022-12-04T20:59:25.359Z,4.51
2022-12-04T21:01:54.706Z,4.45
2022-12-04T21:04:22.894Z,4.52
2022-12-04T21:06:51.047Z,4.45
2022-12-04T21:09:21.491Z,4.42
2022-12-04T21:11:51.073Z,4.42
2022-12-04T21:14:38.231Z,4.33
2022-12-04T21:17:11.764Z,4.45
2022-12-04T21:19:39.994Z,4.41
2022-12-04T21:22:08.117Z,4.41
2022-12-04T21:24:38.688Z,4.37
2022-12-04T21:27:09.246Z,4.50
2022-12-04T21:29:37.517Z,4.43
2022-12-04T21:32:08.114Z,4.37
2022-12-04T21:34:36.610Z,4.37
2022-12-04T21:37:04.710Z,4.43
2022-12-04T21:39:33.194Z,4.29
2022-12-04T21:42:19.022Z,4.36
2022-12-04T21:44:47.288Z,4.39
2022-12-04T21:47:16.835Z,4.36
2022-12-04T21:49:45.174Z,4.37
2022-12-04T21:52:13.284Z,4.37
2022-12-04T21:54:41.440Z,4.41
2022-12-04T21:57:09.954Z,4.37
2022-12-04T21:59:38.040Z,4.39
2022-12-04T22:02:06.320Z,4.42
2022-12-04T22:04:35.815Z,4.50
2022-12-04T22:07:03.863Z,4.44
2022-12-04T22:09:32.002Z,4.47
2022-12-04T22:12:00.545Z,4.52
2022-12-04T22:14:28.971Z,4.53
2022-12-04T22:16:57.157Z,4.56
2022-12-04T22:19:25.251Z,4.55
2022-12-04T22:21:54.727Z,4.49
2022-12-04T22:24:22.902Z,4.52
2022-12-04T22:26:51.429Z,4.49
2022-12-04T22:29:49.928Z,4.45
2022-12-04T22:32:07.768Z,4.53
2022-12-04T22:34:35.824Z,4.53
2022-12-04T22:37:05.278Z,4.60
2022-12-04T22:39:33.962Z,4.52
2022-12-04T22:42:02.046Z,4.57
2022-12-04T22:44:30.114Z,4.51
2022-12-04T22:46:58.193Z,4.64
2022-12-04T22:49:26.433Z,4.60
2022-12-04T22:51:54.457Z,4.57
2022-12-04T22:54:23.958Z,4.53
2022-12-04T22:56:52.142Z,4.55
2022-12-04T22:59:20.265Z,4.61
2022-12-04T23:01:48.465Z,4.62
2022-12-04T23:04:16.662Z,4.57
2022-12-04T23:06:44.822Z,4.56
2022-12-04T23:09:15.857Z,4.63
2022-12-04T23:11:45.987Z,4.66
2022-12-04T23:14:15.992Z,4.61
2022-12-04T23:16:44.669Z,4.56
2022-12-04T23:19:16.345Z,4.59
2022-12-04T23:21:45.129Z,4.43
2022-12-04T23:24:13.616Z,4.59
2022-12-04T23:26:44.107Z,4.49
2022-12-04T23:29:37.101Z,4.55
2022-12-04T23:32:05.909Z,4.41
2022-12-04T23:34:34.435Z,4.50
2022-12-04T23:37:02.486Z,4.44
2022-12-04T23:39:30.713Z,4.35
2022-12-04T23:41:58.798Z,4.34
2022-12-04T23:44:28.207Z,4.34
2022-12-04T23:47:21.785Z,4.24
2022-12-04T23:49:49.883Z,4.29
2022-12-04T23:52:18.303Z,4.25
2022-12-04T23:54:47.458Z,4.27
2022-12-04T23:57:15.537Z,4.31
2022-12-04T23:59:45.090Z,4.30
